Latest Weather Observations for Canberra

IDN60801

Issued at 10:42 pm EDT Tuesday 23 October 2018 (issued every 10 minutes, with the page automatically refreshed every 10 minutes)

About weather observations | Map of weather stations | Latest weather observations for NSW | Other Formats
Station Details ID: 070351 Name: CANBERRA AIRPORT Lat: -35.31 Lon: 149.20 Height: 577.05 m
Data from the previous 72 hours. | See also: Recent months at Canberra
Date/Time
EDT
Temp
°C
App
Temp
°C
Dew
Point
°C
Rel
Hum
%
Delta-T
°C
Wind Press
QNH
hPa
Press
MSL
hPa
Rain since
9am
mm
Dir  Spd
km/h
Gust
km/h
Spd
kts
Gust
kts
23/10:30pm 19.2 14.9 1.2 30 8.3 NNW 13 17 7 9 1014.5 1013.8 0.0
23/10:00pm 20.4 15.2 0.3 26 9.2 NW 17 22 9 12 1014.5 1013.8 0.0
23/09:30pm 21.8 16.6 -0.2 23 10.1 WNW 17 24 9 13 1014.0 1013.3 0.0
23/09:00pm 20.5 15.8 -1.9 22 9.9 NNW 13 15 7 8 1013.4 1012.7 0.0
23/08:30pm 21.7 16.6 -1.6 21 10.4 N 15 15 8 8 1013.0 1012.3 0.0
23/08:00pm 21.4 17.0 -2.5 20 10.5 N 11 13 6 7 1012.7 1011.9 0.0
23/07:30pm 23.0 17.4 -3.3 17 11.5 NW 17 22 9 12 1012.3 1011.6 0.0
23/07:00pm 26.2 20.4 -4.4 13 13.5 WNW 17 28 9 15 1012.0 1011.3 0.0
23/06:30pm 26.7 20.7 -3.0 14 13.5 WNW 19 32 10 17 1011.9 1011.2 0.0
23/06:00pm 27.5 20.3 -2.3 14 13.8 WNW 26 39 14 21 1011.8 1011.1 0.0
23/05:30pm 27.7 18.8 -2.2 14 13.9 NW 35 46 19 25 1011.8 1011.1 0.0
23/05:24pm 27.7 20.0 -3.2 13 14.1 NW 28 46 15 25 1011.8 1011.1 0.0
23/05:00pm 28.1 19.9 -3.9 12 14.5 NW 30 41 16 22 1011.8 1011.1 0.0
23/04:30pm 27.8 19.1 -5.3 11 14.6 WNW 32 44 17 24 1011.9 1011.2 0.0
23/04:00pm 28.1 20.9 -1.9 14 14.1 WNW 26 33 14 18 1011.9 1011.2 0.0
23/03:30pm 27.5 20.2 0.3 17 13.2 NW 28 39 15 21 1012.3 1011.6 0.0
23/03:00pm 27.2 20.4 0.8 18 12.9 W 26 39 14 21 1012.7 1011.9 0.0
23/02:30pm 26.4 18.3 -3.2 14 13.4 WNW 30 43 16 23 1013.2 1012.5 0.0
23/02:00pm 26.5 19.2 0.3 18 12.6 WNW 28 50 15 27 1013.5 1012.8 0.0
23/01:56pm 26.6 19.2 -0.4 17 12.9 WNW 28 50 15 27 1013.5 1012.8 0.0
23/01:30pm 26.0 19.2 0.6 19 12.3 WNW 26 35 14 19 1013.7 1013.0 0.0
23/01:00pm 25.9 17.7 2.6 22 11.6 NNW 35 54 19 29 1014.0 1013.3 0.0
23/12:57pm 26.4 18.7 3.6 23 11.6 NNW 33 54 18 29 1013.9 1013.2 0.0
23/12:30pm 26.0 17.5 0.6 19 12.3 NNW 35 48 19 26 1014.4 1013.7 0.0
23/12:00pm 24.9 17.7 0.4 20 11.7 NW 28 39 15 21 1015.0 1014.3 0.0
23/11:30am 24.6 17.5 1.5 22 11.2 NNW 28 37 15 20 1015.4 1014.7 0.0
23/11:00am 23.2 17.7 2.1 25 10.3 NW 20 28 11 15 1015.7 1015.1 0.0
23/10:30am 21.4 18.7 5.7 36 8.1 NW 9 17 5 9 1015.9 1015.3 0.0
23/10:00am 17.9 15.4 4.8 42 6.5 NNW 7 13 4 7 1016.4 1015.7 0.0
23/09:30am 16.2 14.2 4.6 46 5.6 NNW 4 9 2 5 1016.5 1015.8 0.0
23/09:00am 14.1 12.8 6.0 58 4.0 ESE 2 7 1 4 1016.6 1015.9 0.0
23/08:30am 11.2 10.1 5.1 66 2.9 CALM 0 0 0 0 1016.7 1016.0 0.0
23/08:00am 9.5 8.2 4.3 70 2.4 CALM 0 0 0 0 1016.6 1015.9 0.0
23/07:30am 8.2 5.7 4.6 78 1.6 ENE 7 7 4 4 1016.4 1015.7 0.0
23/07:00am 6.3 4.9 3.3 81 1.3 CALM 0 0 0 0 1016.2 1015.5 0.0
23/06:30am 5.4 3.6 3.3 86 0.9 NE 2 6 1 3 1015.9 1015.3 0.0
23/06:00am 4.8 3.1 1.8 81 1.2 CALM 0 0 0 0 1015.7 1015.1 0.0
23/05:30am 5.5 2.6 2.8 83 1.2 ESE 7 9 4 5 1015.4 1014.7 0.0
23/05:00am 5.1 3.5 2.5 83 1.1 CALM 0 0 0 0 1015.3 1014.6 0.0
23/04:30am 6.5 5.1 3.5 81 1.3 CALM 0 0 0 0 1015.3 1014.6 0.0
23/04:00am 6.2 3.5 2.8 79 1.5 SSE 6 7 3 4 1015.4 1014.7 0.0
23/03:30am 6.7 5.3 3.3 79 1.5 CALM 0 0 0 0 1015.5 1014.8 0.0
23/03:00am 6.5 5.0 2.9 78 1.6 CALM 0 0 0 0 1015.7 1015.1 0.0
23/02:30am 6.8 5.2 2.7 75 1.8 CALM 0 7 0 4 1015.6 1014.9 0.0
23/02:00am 8.6 7.1 2.8 67 2.5 CALM 0 0 0 0 1015.7 1015.1 0.0
23/01:30am 8.4 7.0 3.3 70 2.3 CALM 0 0 0 0 1016.0 1015.4 0.0
23/01:00am 8.8 6.3 3.8 71 2.2 SSE 6 7 3 4 1016.4 1015.7 0.0
23/12:30am 9.2 7.9 4.0 70 2.4 CALM 0 0 0 0 1016.7 1016.0 0.0
23/12:00am 10.6 9.3 3.9 63 3.1 CALM 0 0 0 0 1016.8 1016.1 0.0
 
Date/Time
EDT
Temp
°C
App
Temp
°C
Dew
Point
°C
Rel
Hum
%
Delta-T
°C
Wind Press
QNH
hPa
Press
MSL
hPa
Rain since
9am
mm
Dir  Spd
km/h
Gust
km/h
Spd
kts
Gust
kts
22/11:30pm 10.0 8.6 3.5 64 2.9 CALM 0 0 0 0 1016.9 1016.2 0.0
22/11:00pm 10.9 9.5 3.7 61 3.3 CALM 0 0 0 0 1016.8 1016.1 0.0
22/10:30pm 11.4 10.0 3.7 59 3.5 CALM 0 0 0 0 1016.7 1016.0 0.0
22/10:00pm 12.9 11.5 3.6 53 4.3 CALM 0 0 0 0 1016.7 1016.0 0.0
22/09:30pm 13.3 11.2 3.9 53 4.4 NW 4 7 2 4 1016.5 1015.8 0.0
22/09:00pm 15.0 12.2 3.2 45 5.5 ENE 7 9 4 5 1016.2 1015.5 0.0
22/08:30pm 16.8 13.9 2.8 39 6.6 NNE 7 9 4 5 1015.9 1015.3 0.0
22/08:00pm 18.6 14.8 1.6 32 7.9 NW 11 13 6 7 1015.7 1015.1 0.0
22/07:30pm 19.4 14.8 1.4 30 8.4 NNW 15 19 8 10 1015.4 1014.7 0.0
22/07:00pm 21.9 15.9 1.0 25 9.9 NNW 22 28 12 15 1014.9 1014.2 0.0
22/06:30pm 23.0 16.7 1.4 24 10.4 NNW 24 30 13 16 1014.8 1014.1 0.0
22/06:00pm 23.2 16.6 -0.3 21 10.9 NNW 24 32 13 17 1014.6 1013.9 0.0
22/05:30pm 23.9 17.0 0.3 21 11.2 N 26 32 14 17 1014.6 1013.9 0.0
22/05:00pm 25.2 19.1 0.7 20 11.8 NW 22 32 12 17 1014.5 1013.8 0.0
22/04:30pm 24.3 18.5 -0.1 20 11.5 NNW 20 30 11 16 1014.7 1014.0 0.0
22/04:00pm 25.3 20.5 4.4 26 10.7 NNW 19 30 10 16 1014.8 1014.1 0.0
22/03:30pm 24.4 19.2 3.7 26 10.5 NNW 20 33 11 18 1014.9 1014.2 0.0
22/03:00pm 24.8 19.0 4.5 27 10.4 NNW 24 32 13 17 1015.1 1014.4 0.0
22/02:30pm 23.2 17.5 4.7 30 9.4 NNW 24 37 13 20 1015.4 1014.7 0.0
22/02:00pm 22.4 18.0 4.9 32 8.9 NNW 17 30 9 16 1015.9 1015.3 0.0
22/01:30pm 22.4 17.5 4.9 32 8.9 NNW 20 32 11 17 1016.3 1015.6 0.0
22/01:00pm 21.8 16.2 1.5 26 9.7 NW 20 30 11 16 1016.7 1016.0 0.0
22/12:30pm 22.4 17.3 3.0 28 9.5 NNW 19 30 10 16 1016.8 1016.1 0.0
22/12:00pm 20.6 16.2 5.0 36 7.9 NNW 17 26 9 14 1017.1 1016.4 0.0
22/11:30am 19.2 14.8 4.6 38 7.2 NW 17 28 9 15 1017.8 1017.2 0.0
22/11:00am 18.9 15.5 7.7 48 5.9 NW 15 28 8 15 1018.2 1017.5 0.0
22/10:30am 17.5 15.0 8.4 55 4.8 NNW 11 19 6 10 1018.4 1017.7 0.0
22/10:00am 16.9 15.2 9.8 63 3.8 NW 9 15 5 8 1018.6 1017.9 0.0
22/09:30am 15.0 13.7 9.1 68 3.1 N 6 11 3 6 1018.8 1018.2 0.0
22/09:00am 13.9 12.5 8.9 72 2.6 NNE 6 11 3 6 1018.8 1018.2 0.0
22/08:53am 13.7 12.2 9.0 73 2.5 NNE 7 13 4 7 1018.8 1018.2 0.0
22/08:30am 13.4 12.6 9.5 77 2.1 NNE 4 9 2 5 1019.0 1018.4 0.0
22/08:18am 12.8 12.5 8.5 75 2.2 CALM 0 0 0 0 1019.0 1018.4 0.0
22/08:00am 12.1 11.7 8.4 78 1.9 CALM 0 0 0 0 1018.8 1018.2 0.0
22/07:31am 10.7 9.1 8.6 87 1.1 N 7 7 4 4 1018.5 1017.8 0.0
22/07:30am 10.7 9.1 8.6 87 1.1 N 7 7 4 4 1018.5 1017.8 0.0
22/07:00am 9.8 8.2 8.9 94 0.5 N 7 7 4 4 1018.3 1017.6 0.0
22/06:30am 9.1 7.3 8.0 93 0.5 N 7 9 4 5 1018.1 1017.4 0.0
22/06:00am 9.3 8.4 7.6 89 0.8 NNE 2 11 1 6 1017.7 1017.1 0.0
22/05:30am 10.7 9.2 9.1 90 0.8 ESE 7 7 4 4 1017.7 1017.1 0.0
22/05:00am 10.5 8.9 8.8 89 0.9 SE 7 9 4 5 1017.6 1017.0 0.0
22/04:30am 10.9 8.9 8.8 87 1.1 S 9 9 5 5 1017.7 1017.1 0.0
22/04:00am 11.3 10.4 9.2 87 1.1 S 4 11 2 6 1017.8 1017.2 0.0
22/03:30am 11.2 10.9 8.8 85 1.2 CALM 0 0 0 0 1017.8 1017.2 0.0
22/03:00am 11.2 9.6 8.8 85 1.2 SSE 7 9 4 5 1017.7 1017.1 0.0
22/02:30am 11.2 9.3 8.9 86 1.2 S 9 11 5 6 1017.8 1017.2 0.0
22/02:00am 11.2 9.8 8.9 86 1.2 ESE 6 7 3 4 1018.0 1017.3 0.0
22/01:30am 11.0 9.4 8.9 87 1.1 ESE 7 9 4 5 1018.2 1017.5 0.0
22/01:00am 10.4 10.3 9.3 93 0.6 CALM 0 0 0 0 1018.4 1017.7 0.0
22/12:30am 9.7 8.7 8.8 94 0.5 ESE 4 7 2 4 1018.5 1017.8 0.0
22/12:15am 9.2 7.3 7.6 90 0.8 ESE 7 7 4 4 1018.5 1017.8 0.0
22/12:00am 9.9 8.3 8.0 88 0.9 ESE 6 9 3 5 1018.5 1017.8 0.0
 
Date/Time
EDT
Temp
°C
App
Temp
°C
Dew
Point
°C
Rel
Hum
%
Delta-T
°C
Wind Press
QNH
hPa
Press
MSL
hPa
Rain since
9am
mm
Dir  Spd
km/h
Gust
km/h
Spd
kts
Gust
kts
21/11:30pm 9.7 7.8 7.6 87 1.0 SE 7 11 4 6 1018.4 1017.7 0.0
21/11:00pm 10.8 9.0 8.0 83 1.4 ESE 7 9 4 5 1018.4 1017.7 0.0
21/10:30pm 11.0 8.8 7.9 81 1.6 E 9 11 5 6 1018.4 1017.7 0.0
21/10:00pm 11.7 9.6 8.2 79 1.8 ESE 9 13 5 7 1018.4 1017.7 0.0
21/09:30pm 11.9 10.2 8.2 78 1.9 ESE 7 13 4 7 1018.0 1017.3 0.0
21/09:00pm 12.4 8.4 8.3 76 2.1 ENE 19 28 10 15 1017.6 1017.0 0.0
21/08:30pm 13.1 7.8 8.4 73 2.4 E 26 35 14 19 1017.1 1016.4 0.0
21/08:00pm 14.3 9.4 8.5 68 3.0 ENE 24 32 13 17 1016.6 1015.9 0.0
21/07:30pm 17.6 13.5 4.2 41 6.5 NNE 15 19 8 10 1016.0 1015.4 0.0
21/07:00pm 18.7 13.7 3.7 37 7.3 N 19 24 10 13 1015.5 1014.8 0.0
21/06:30pm 19.8 14.3 3.9 35 7.8 N 22 30 12 16 1015.0 1014.3 0.0
21/06:00pm 20.2 15.1 4.3 35 7.9 N 20 28 11 15 1014.7 1014.0 0.0
21/05:30pm 20.7 16.2 4.3 34 8.2 NNW 17 22 9 12 1014.4 1013.7 0.0
21/05:00pm 20.8 16.0 5.6 37 7.8 N 20 26 11 14 1014.3 1013.6 0.0
21/04:30pm 20.8 16.6 5.6 37 7.8 NNW 17 24 9 13 1014.4 1013.7 0.0
21/04:00pm 21.1 17.8 6.6 39 7.6 NW 13 26 7 14 1014.5 1013.8 0.0
21/03:30pm 21.0 16.9 6.2 38 7.7 NNW 17 26 9 14 1014.6 1013.9 0.0
21/03:00pm 19.9 16.1 5.9 40 7.2 NW 15 28 8 15 1015.0 1014.3 0.0
21/02:30pm 19.7 15.6 6.4 42 6.9 NW 17 22 9 12 1015.4 1014.7 0.0
21/02:00pm 19.0 15.3 6.5 44 6.4 NW 15 26 8 14 1015.8 1015.2 0.0
21/01:30pm 18.7 15.4 6.5 45 6.3 NNE 13 20 7 11 1016.3 1015.6 0.0
21/01:00pm 17.8 14.5 6.3 47 5.8 N 13 22 7 12 1016.6 1015.9 0.0
21/12:30pm 17.4 14.6 5.0 44 6.1 S 9 17 5 9 1016.8 1016.1 0.0
21/12:00pm 16.7 13.0 4.7 45 5.9 W 13 20 7 11 1017.3 1016.7 0.0
21/11:30am 16.0 13.1 4.7 47 5.5 NW 9 17 5 9 1017.6 1017.0 0.0
21/11:00am 15.1 12.3 5.0 51 4.9 NNW 9 15 5 8 1017.8 1017.2 0.0
21/10:30am 14.7 12.1 6.3 57 4.2 N 9 13 5 7 1018.1 1017.4 0.0
21/10:00am 13.7 11.0 5.8 59 3.9 NNW 9 13 5 7 1018.1 1017.4 0.0
21/09:30am 13.1 11.0 6.5 64 3.3 SSE 7 11 4 6 1018.0 1017.3 0.0
21/09:00am 12.0 10.0 6.9 71 2.5 E 7 11 4 6 1017.8 1017.2 9.4
21/08:30am 10.7 9.2 6.6 76 2.0 SSE 4 7 2 4 1017.7 1017.1 9.4
21/08:00am 8.9 8.1 6.5 85 1.1 CALM 0 0 0 0 1017.6 1017.0 9.4
21/07:53am 9.2 8.5 7.0 86 1.1 CALM 0 0 0 0 1017.6 1017.0 9.4
21/07:30am 7.6 7.0 7.5 99 0.0 CALM 0 0 0 0 1017.7 1017.1 9.4
21/07:00am 6.7 5.2 6.6 99 0.0 NNE 4 7 2 4 1017.6 1017.0 9.4
21/06:30am 6.3 3.7 6.2 99 0.0 NNE 9 13 5 7 1017.2 1016.6 9.4
21/06:00am 5.1 4.0 5.0 99 0.0 CALM 0 0 0 0 1016.8 1016.1 9.4
21/05:56am 5.2 4.1 5.1 99 0.0 CALM 0 0 0 0 1016.7 1016.0 9.4
21/05:30am 5.4 4.3 5.1 98 0.1 CALM 0 0 0 0 1016.2 1015.5 9.4
21/05:00am 5.5 4.3 4.8 95 0.3 CALM 0 0 0 0 1015.7 1015.1 9.4
21/04:34am 6.6 5.8 6.3 98 0.1 CALM 0 0 0 0 1015.5 1014.8 9.4
21/04:30am 6.6 5.8 6.3 98 0.1 CALM 0 0 0 0 1015.5 1014.8 9.4
21/04:17am 6.4 5.6 6.3 99 0.0 CALM 0 0 0 0 1015.5 1014.8 9.4
21/04:00am 5.9 4.9 5.5 97 0.2 CALM 0 0 0 0 1015.4 1014.7 9.4
21/03:30am 6.4 4.6 5.4 93 0.5 N 4 9 2 5 1015.4 1014.7 9.4
21/03:00am 7.6 5.5 5.7 88 0.9 N 6 7 3 4 1015.3 1014.6 9.4
21/02:30am 7.6 5.3 5.6 87 0.9 N 7 9 4 5 1015.4 1014.7 9.4
21/02:00am 9.1 5.9 6.7 85 1.2 NNE 13 15 7 8 1015.7 1015.1 9.4
21/01:30am 10.0 6.9 7.4 84 1.3 NNE 13 17 7 9 1015.7 1015.1 9.4
21/01:00am 10.2 7.2 7.8 85 1.2 N 13 15 7 8 1016.2 1015.5 9.4
21/12:30am 11.1 8.6 8.1 82 1.5 N 11 15 6 8 1016.3 1015.6 9.4
21/12:00am 11.6 9.0 7.9 78 1.9 N 11 17 6 9 1015.9 1015.3 9.4
 
Date/Time
EDT
Temp
°C
App
Temp
°C
Dew
Point
°C
Rel
Hum
%
Delta-T
°C
Wind Press
QNH
hPa
Press
MSL
hPa
Rain since
9am
mm
Dir  Spd
km/h
Gust
km/h
Spd
kts
Gust
kts
20/11:30pm 12.3 7.8 8.4 77 2.0 NW 22 30 12 16 1016.0 1015.4 9.4
20/11:00pm 14.1 11.2 9.7 75 2.3 N 15 19 8 10 1016.2 1015.5 9.4

Other Formats:

Comma delimited format used in spreadsheet applications
http://www.bom.gov.au/fwo/IDN60801/IDN60801.94926.axf

JavaScript Object Notation format (JSON) in row-major order
http://www.bom.gov.au/fwo/IDN60801/IDN60801.94926.json